Time;durP1;ratioP1;P1;durP2;ratioP2;P2;SDS_P1;SDS_P2;PMS_P1;PMS_P2;Temp;Humidity;BMP_temperature;BMP_pressure;BME280_temperature;BME280_humidity;BME280_pressure;Samples;Min_cycle;Max_cycle;Signal;HPM_P1;HPM_P2
2022/09/24 00:02:10;;;;;;;33.15;7.82;;;;;;;11.14;100.00;100276.09;4995380;28;20212;-79
2022/09/24 00:04:38;;;;;;;31.98;8.77;;;11.30;99.90;;;11.16;100.00;100290.22;4977691;28;20233;-80
2022/09/24 00:07:06;;;;;;;38.15;13.63;;;11.30;99.90;;;11.17;100.00;100284.06;4978730;28;20239;-80
2022/09/24 00:09:34;;;;;;;31.50;7.75;;;11.30;99.90;;;11.16;100.00;100287.59;4980002;28;20586;-79
2022/09/24 00:12:03;;;;;;;32.65;7.82;;;11.30;99.90;;;11.19;100.00;100278.78;4982849;28;20216;-80
2022/09/24 00:14:31;;;;;;;35.33;8.30;;;11.30;99.90;;;11.21;100.00;100269.06;4979006;28;20224;-79
2022/09/24 00:16:59;;;;;;;29.23;7.40;;;11.20;99.90;;;11.22;100.00;100261.13;4978889;28;20220;-79
2022/09/24 00:19:27;;;;;;;26.08;5.32;;;11.20;99.90;;;11.20;100.00;100267.31;4973033;28;20209;-79
2022/09/24 00:21:54;;;;;;;35.03;7.95;;;11.30;99.90;;;11.22;100.00;100265.53;4984635;28;20207;-80
2022/09/24 00:27:09;;;;;;;33.85;8.23;;;11.20;99.90;;;11.20;100.00;100251.41;4977356;28;20211;-80
2022/09/24 00:29:37;;;;;;;35.63;8.63;;;11.20;99.90;;;11.13;100.00;100254.91;4985498;28;20242;-80
2022/09/24 00:32:05;;;;;;;34.53;7.60;;;11.30;99.90;;;11.12;100.00;100243.44;4984519;28;20209;-80
2022/09/24 00:34:33;;;;;;;37.08;7.80;;;11.20;99.90;;;10.95;100.00;100250.44;4983934;28;20707;-80
2022/09/24 00:37:01;;;;;;;33.28;6.97;;;11.20;99.90;;;10.87;100.00;100255.69;4981695;28;20236;-80
2022/09/24 00:39:29;;;;;;;28.40;6.63;;;11.10;99.90;;;10.91;100.00;100253.94;4982727;28;20211;-79
2022/09/24 00:41:57;;;;;;;36.50;8.13;;;11.00;99.90;;;11.03;100.00;100243.41;5075318;23;20243;-83
2022/09/24 00:44:40;;;;;;;35.97;7.15;;;11.00;99.90;;;10.80;100.00;100231.84;4979182;28;20234;-83
2022/09/24 00:47:33;;;;;;;33.47;7.00;;;11.00;99.90;;;10.67;100.00;100224.72;4962721;28;20221;-83
2022/09/24 00:50:04;;;;;;;21.98;4.72;;;10.90;99.90;;;10.60;100.00;100234.38;4967591;28;20204;-85
2022/09/24 00:53:08;;;;;;;30.60;6.13;;;10.80;99.90;;;10.45;100.00;100237.81;4959445;28;20220;-85
2022/09/24 00:55:37;;;;;;;29.95;6.15;;;10.80;99.90;;;10.47;100.00;100228.16;4971577;28;20764;-84
2022/09/24 00:58:07;;;;;;;32.08;6.78;;;10.70;99.90;;;10.45;100.00;100223.72;4962109;28;20228;-84
2022/09/24 01:00:43;;;;;;;31.42;6.18;;;10.60;99.90;;;10.38;100.00;100229.81;4978944;28;20216;-84
2022/09/24 01:03:21;;;;;;;31.63;6.13;;;10.60;99.90;;;10.35;100.00;100229.78;4961132;28;20208;-84
2022/09/24 01:05:50;;;;;;;30.73;6.65;;;10.50;99.90;;;10.45;100.00;100232.53;4955725;28;20248;-84
2022/09/24 01:08:19;;;;;;;26.95;5.25;;;10.50;99.90;;;10.44;100.00;100222.84;4947159;28;20202;-84
2022/09/24 01:10:52;;;;;;;21.95;4.65;;;10.60;99.90;;;10.19;100.00;100226.13;4960189;28;20210;-84
2022/09/24 01:13:39;;;;;;;39.15;8.00;;;10.40;99.90;;;10.17;100.00;100227.88;4970026;28;20205;-84
2022/09/24 01:16:52;;;;;;;25.77;5.75;;;10.40;99.90;;;10.08;100.00;100233.09;4965893;28;20308;-83
2022/09/24 01:19:59;;;;;;;23.20;4.85;;;10.30;99.90;;;10.14;100.00;100233.13;4953643;28;20208;-84
2022/09/24 01:23:02;;;;;;;31.67;6.13;;;10.20;99.90;;;10.20;100.00;100227.94;4966647;28;20209;-84
2022/09/24 01:25:49;;;;;;;35.97;7.03;;;10.20;99.90;;;10.10;100.00;100219.03;4961683;28;20224;-84
2022/09/24 01:28:42;;;;;;;33.95;6.80;;;10.20;99.90;;;10.02;100.00;100218.06;4969677;28;20220;-84
2022/09/24 01:31:27;;;;;;;25.95;5.72;;;10.20;99.90;;;9.84;100.00;100228.50;4968119;28;20224;-84
2022/09/24 01:33:58;;;;;;;57.80;10.98;;;10.10;99.90;;;9.80;100.00;100240.78;4967676;28;20204;-84
2022/09/24 01:36:28;;;;;;;32.78;6.15;;;10.00;99.90;;;9.74;100.00;100247.78;4952572;28;20214;-84
2022/09/24 01:38:58;;;;;;;25.42;5.32;;;9.90;99.90;;;9.72;100.00;100250.41;4965593;28;20208;-83
2022/09/24 01:41:26;;;;;;;16.05;3.33;;;;;;;9.61;100.00;100247.66;4993627;23;20231;-80
2022/09/24 01:43:54;;;;;;;15.05;3.00;;;9.90;99.90;;;9.60;100.00;100235.31;4999683;28;20215;-80
2022/09/24 01:46:23;;;;;;;19.55;3.92;;;;;;;9.64;100.00;100225.69;4985764;28;20237;-80
2022/09/24 01:48:52;;;;;;;16.55;3.50;;;;;;;9.50;100.00;100220.25;4988807;28;20688;-80
2022/09/24 01:51:33;;;;;;;18.75;3.65;;;9.70;99.90;;;9.39;100.00;100213.09;4986221;28;20208;-80
2022/09/24 01:54:06;;;;;;;16.23;3.17;;;9.70;99.90;;;9.37;100.00;100212.22;4988255;28;20220;-80
2022/09/24 01:57:03;;;;;;;22.85;4.50;;;9.60;99.90;;;9.37;100.00;100210.47;4983589;28;20228;-78
2022/09/24 01:59:39;;;;;;;16.00;3.17;;;9.60;99.90;;;9.36;100.00;100221.00;4978906;28;20220;-77
2022/09/24 02:02:29;;;;;;;15.75;3.90;;;9.50;99.90;;;9.24;100.00;100214.72;4990397;28;20653;-79
2022/09/24 02:05:37;;;;;;;20.35;4.00;;;9.50;99.90;;;8.98;100.00;100211.75;4982480;28;20229;-79
2022/09/24 02:08:22;;;;;;;14.45;2.97;;;9.30;99.90;;;8.95;100.00;100217.00;4968086;28;20208;-79
2022/09/24 02:11:10;;;;;;;15.80;3.22;;;9.20;99.90;;;8.98;100.00;100227.59;4979752;28;20215;-77
2022/09/24 02:13:47;;;;;;;17.20;3.45;;;9.20;99.90;;;9.02;100.00;100230.25;4979882;28;20212;-79
2022/09/24 02:16:20;;;;;;;16.05;3.22;;;9.20;99.90;;;8.99;100.00;100232.00;4980129;28;20232;-78
2022/09/24 02:18:53;;;;;;;17.13;3.42;;;9.20;99.90;;;9.03;100.00;100234.66;4980135;28;20193;-78
2022/09/24 02:21:23;;;;;;;15.18;3.05;;;9.10;99.90;;;9.15;100.00;100230.44;4979556;28;20213;-78
2022/09/24 02:24:20;;;;;;;24.17;4.72;;;9.10;99.90;;;8.98;100.00;100226.69;4984513;28;20216;-78
2022/09/24 02:26:48;;;;;;;22.38;4.32;;;9.20;99.90;;;8.97;100.00;100231.09;4969603;28;20241;-78
2022/09/24 02:29:17;;;;;;;17.88;3.63;;;9.10;99.90;;;8.84;100.00;100226.53;4970865;28;20219;-78
2022/09/24 02:31:48;;;;;;;24.08;4.72;;;9.10;99.90;;;8.75;100.00;100231.69;4977103;28;20213;-80
2022/09/24 02:34:24;;;;;;;20.42;4.10;;;9.00;99.90;;;8.73;100.00;100238.69;4979956;28;20237;-80
2022/09/24 02:37:13;;;;;;;14.45;2.92;;;9.00;99.90;;;8.69;100.00;100241.25;4978131;28;20212;-78
2022/09/24 02:39:42;;;;;;;16.63;3.33;;;8.90;99.90;;;8.78;100.00;100244.91;4973919;28;20210;-78
2022/09/24 02:42:12;;;;;;;15.80;3.22;;;8.90;99.90;;;8.84;100.00;100244.09;4975648;28;20217;-80
2022/09/24 02:44:40;;;;;;;21.17;4.32;;;8.90;99.90;;;8.78;100.00;100230.84;4986322;28;20229;-80
2022/09/24 02:47:08;;;;;;;26.20;5.13;;;8.90;99.90;;;8.82;100.00;100215.06;4975739;28;20244;-80
2022/09/24 02:49:36;;;;;;;16.35;3.38;;;8.90;99.90;;;8.86;100.00;100218.63;4980090;28;20216;-80
2022/09/24 02:52:04;;;;;;;26.58;5.22;;;8.90;99.90;;;8.94;100.00;100224.88;4976223;28;20213;-78
2022/09/24 02:54:33;;;;;;;21.38;4.35;;;8.90;99.90;;;8.91;100.00;100224.84;4974164;28;20702;-78
2022/09/24 02:57:00;;;;;;;18.40;3.83;;;8.90;99.90;;;8.89;100.00;100227.47;4983481;28;20213;-80
2022/09/24 02:59:28;;;;;;;12.73;2.67;;;9.00;99.90;;;8.80;100.00;100227.34;4985575;28;20221;-80
2022/09/24 03:01:56;;;;;;;12.38;2.55;;;9.00;99.90;;;8.74;100.00;100229.03;4984664;28;20209;-80
2022/09/24 03:04:25;;;;;;;17.88;3.63;;;8.90;99.90;;;8.74;100.00;100244.84;4981740;28;20225;-78
2022/09/24 03:06:53;;;;;;;16.05;3.30;;;8.90;99.90;;;8.66;100.00;100240.34;4978048;28;20313;-77
2022/09/24 03:09:21;;;;;;;16.02;3.33;;;8.80;99.90;;;8.66;100.00;100253.53;4979997;28;20204;-77
2022/09/24 03:11:49;;;;;;;25.10;5.00;;;8.80;99.90;;;8.72;100.00;100258.00;4970436;28;20221;-78
2022/09/24 03:14:16;;;;;;;15.02;3.15;;;8.80;99.90;;;8.62;100.00;100262.25;4976312;28;20229;-78
2022/09/24 03:16:44;;;;;;;26.52;5.22;;;8.80;99.90;;;8.70;100.00;100272.03;4973029;28;20220;-79
2022/09/24 03:19:12;;;;;;;22.90;4.65;;;8.80;99.90;;;8.64;100.00;100275.47;4973626;28;20702;-76
2022/09/24 03:21:40;;;;;;;25.40;5.03;;;8.80;99.90;;;8.53;100.00;100275.31;4985772;28;20216;-79
2022/09/24 03:24:08;;;;;;;21.33;4.28;;;8.70;99.90;;;8.28;100.00;100262.59;4974729;28;20214;-78
2022/09/24 03:26:36;;;;;;;20.75;4.22;;;8.60;99.90;;;8.24;100.00;100274.84;4975543;28;20232;-78
2022/09/24 03:29:04;;;;;;;18.27;3.80;;;8.50;99.90;;;8.12;100.00;100260.59;4987163;28;20205;-78
2022/09/24 03:31:32;;;;;;;14.18;3.03;;;8.40;99.90;;;8.13;100.00;100268.50;4976662;28;20223;-77
2022/09/24 03:34:00;;;;;;;17.55;3.70;;;8.40;99.90;;;8.24;100.00;100276.59;4972673;28;20216;-77
2022/09/24 03:36:28;;;;;;;15.77;3.25;;;8.40;99.90;;;8.30;100.00;100272.28;4973291;28;20221;-77
2022/09/24 03:38:56;;;;;;;18.98;3.90;;;8.40;99.90;;;8.32;100.00;100260.03;4972187;28;20240;-77
2022/09/24 03:41:26;;;;;;;42.67;7.70;;;8.40;99.90;;;8.30;100.00;100267.03;5091004;23;20392;-83
2022/09/24 03:43:55;;;;;;;30.63;6.25;;;8.40;99.90;;;8.24;100.00;100264.31;4992911;28;20212;-84
2022/09/24 03:46:28;;;;;;;29.52;6.15;;;;;;;8.08;100.00;100267.56;4984852;28;20247;-84
2022/09/24 03:48:59;;;;;;;38.00;7.60;;;8.30;99.90;;;8.05;100.00;100274.53;4986492;28;20203;-84
2022/09/24 03:51:27;;;;;;;26.63;5.43;;;;;;;8.10;100.00;100270.22;4993343;28;20247;-84
2022/09/24 03:53:55;;;;;;;31.15;6.30;;;8.20;99.90;;;8.09;100.00;100286.88;4989387;28;20212;-84
2022/09/24 03:56:23;;;;;;;21.38;4.43;;;;;;;8.03;100.00;100270.13;5001229;28;20208;-83
2022/09/24 03:58:52;;;;;;;25.63;5.30;;;;;;;7.99;100.00;100275.31;4995643;28;20548;-83
2022/09/24 04:01:20;;;;;;;32.03;6.53;;;8.20;99.90;;;8.01;100.00;100271.84;4989421;28;20219;-83
2022/09/24 04:03:49;;;;;;;30.65;6.32;;;;;;;8.11;100.00;100280.78;4991169;28;20220;-82
2022/09/24 04:06:18;;;;;;;25.45;5.28;;;;;;;8.06;100.00;100271.03;5004986;28;20232;-82
2022/09/24 04:08:53;;;;;;;28.23;5.78;;;;;;;7.99;100.00;100265.66;4989822;28;20204;-82
2022/09/24 04:11:22;;;;;;;27.63;5.75;;;;;;;7.98;100.00;100265.63;4991330;28;20201;-81
2022/09/24 04:13:50;;;;;;;42.45;8.45;;;8.10;99.90;;;7.91;100.00;100258.50;4991466;28;20213;-82
2022/09/24 04:16:18;;;;;;;27.70;5.75;;;;;;;7.89;100.00;100269.00;4988808;28;20196;-82
2022/09/24 04:18:47;;;;;;;25.45;5.20;;;;;;;7.89;100.00;100283.91;4990904;28;20208;-82
2022/09/24 04:21:15;;;;;;;29.25;5.97;;;8.00;99.90;;;7.77;100.00;100284.53;4993581;28;20207;-82
2022/09/24 04:23:44;;;;;;;30.90;6.35;;;;;;;7.84;100.00;100277.69;4992376;28;20208;-82
2022/09/24 04:26:12;;;;;;;26.90;5.53;;;8.00;99.90;;;8.01;100.00;100285.00;4990613;28;20231;-82
2022/09/24 04:28:40;;;;;;;26.20;5.43;;;8.00;99.90;;;7.90;100.00;100280.41;4987031;28;20212;-81
2022/09/24 04:31:08;;;;;;;34.47;7.05;;;;;;;7.86;100.00;100281.22;4985092;28;20608;-81
2022/09/24 04:33:36;;;;;;;26.98;5.65;;;8.00;99.90;;;7.99;100.00;100294.63;4996401;28;20211;-81
2022/09/24 04:36:04;;;;;;;20.08;4.25;;;8.10;99.90;;;8.01;100.00;100289.38;5002749;28;20693;-81
2022/09/24 04:38:33;;;;;;;21.77;4.72;;;;;;;7.99;100.00;100283.19;5000171;28;20226;-81
2022/09/24 04:41:08;;;;;;;34.70;6.75;;;8.10;99.90;;;7.90;100.00;100290.94;5010511;23;20231;-78
2022/09/24 04:43:36;;;;;;;17.10;3.58;;;8.00;99.90;;;7.93;100.00;100307.69;4999505;28;20207;-78
2022/09/24 04:46:05;;;;;;;11.43;2.50;;;8.00;99.90;;;7.90;100.00;100309.38;4988462;28;20227;-78
2022/09/24 04:48:36;;;;;;;13.02;2.75;;;8.00;99.90;;;7.93;100.00;100312.94;4986764;28;20323;-77
2022/09/24 04:51:07;;;;;;;14.65;3.10;;;8.00;99.90;;;7.95;100.00;100312.97;4982502;28;20700;-78
2022/09/24 04:53:36;;;;;;;17.15;3.63;;;8.00;99.90;;;7.88;100.00;100324.25;4982632;28;20599;-78
2022/09/24 04:56:10;;;;;;;17.35;3.65;;;8.00;99.90;;;7.70;100.00;100333.56;4987920;28;20239;-78
2022/09/24 04:58:39;;;;;;;13.02;2.80;;;8.00;99.90;;;7.72;100.00;100338.84;4985049;28;20208;-78
2022/09/24 05:01:07;;;;;;;16.63;3.50;;;7.90;99.90;;;7.67;100.00;100335.25;4985314;28;20219;-77
2022/09/24 05:03:35;;;;;;;17.67;3.63;;;7.90;99.90;;;7.76;100.00;100350.31;4982755;28;20209;-77
2022/09/24 05:06:03;;;;;;;25.15;5.20;;;7.90;99.90;;;7.82;100.00;100342.56;4983207;28;20228;-77
2022/09/24 05:08:30;;;;;;;19.33;3.95;;;7.90;99.90;;;7.96;100.00;100339.34;4983731;28;20233;-77
2022/09/24 05:10:59;;;;;;;14.38;3.10;;;8.00;99.90;;;8.03;100.00;100341.22;4983525;28;20212;-77
2022/09/24 05:13:27;;;;;;;16.73;3.47;;;8.00;99.90;;;7.94;100.00;100355.97;4984096;28;20217;-77
2022/09/24 05:15:55;;;;;;;13.18;2.78;;;8.10;99.90;;;7.92;100.00;100376.13;4983369;28;20252;-77
2022/09/24 05:18:23;;;;;;;14.80;3.17;;;8.10;99.90;;;7.93;100.00;100375.25;4989726;28;20219;-77
2022/09/24 05:20:51;;;;;;;18.90;3.92;;;8.10;99.90;;;7.93;100.00;100384.03;4990881;28;20343;-78
2022/09/24 05:23:19;;;;;;;16.55;3.53;;;8.10;99.90;;;8.02;100.00;100391.22;4985508;28;20212;-77
2022/09/24 05:28:34;;;;;;;18.55;3.78;;;8.10;99.90;;;8.11;100.00;100393.13;4982346;28;20239;-78
2022/09/24 05:31:01;;;;;;;32.47;6.45;;;8.10;99.90;;;8.22;100.00;100404.75;4980861;28;20208;-78
2022/09/24 05:33:29;;;;;;;17.67;3.75;;;8.20;99.90;;;8.27;100.00;100403.97;4986012;28;20216;-79
2022/09/24 05:35:57;;;;;;;22.35;4.55;;;8.30;99.90;;;8.35;100.00;100414.69;4989409;28;20232;-79
2022/09/24 05:38:25;;;;;;;16.23;3.35;;;8.30;99.90;;;8.43;100.00;100414.81;4989929;28;20205;-78
2022/09/24 05:40:53;;;;;;;19.75;4.03;;;8.40;99.90;;;8.47;100.00;100438.63;4984167;28;20216;-77
2022/09/24 05:43:21;;;;;;;19.23;3.92;;;8.40;99.90;;;8.44;100.00;100421.88;4983438;28;20212;-77
2022/09/24 05:45:49;;;;;;;16.75;3.55;;;8.40;99.90;;;8.42;100.00;100413.94;4989913;28;20225;-77
2022/09/24 05:48:17;;;;;;;31.25;6.35;;;8.40;99.90;;;8.37;100.00;100407.69;4986608;28;20608;-78
2022/09/24 05:50:45;;;;;;;16.77;3.45;;;8.40;99.90;;;8.42;100.00;100418.31;4979250;28;20227;-79
2022/09/24 05:53:16;;;;;;;16.50;3.58;;;8.40;99.90;;;8.45;100.00;100413.09;4982580;28;20204;-78
2022/09/24 05:55:44;;;;;;;23.27;4.88;;;8.40;99.90;;;8.46;100.00;100418.41;4983199;28;20228;-77
2022/09/24 05:58:12;;;;;;;15.90;3.42;;;8.50;99.90;;;8.55;100.00;100415.03;4975936;28;20217;-77
2022/09/24 06:00:40;;;;;;;14.90;3.20;;;8.50;99.90;;;8.62;100.00;100422.19;4986675;28;20213;-77
2022/09/24 06:03:15;;;;;;;16.17;3.53;;;8.60;99.90;;;8.65;100.00;100444.19;4989531;28;20590;-77
2022/09/24 06:05:49;;;;;;;17.88;3.75;;;8.60;99.90;;;8.75;100.00;100457.53;4983971;28;20231;-78
2022/09/24 06:08:19;;;;;;;14.57;3.17;;;8.70;99.90;;;8.78;100.00;100447.03;4987553;28;20576;-78
2022/09/24 06:10:47;;;;;;;14.10;3.08;;;;;;;8.87;100.00;100444.56;4979525;28;20204;-77
2022/09/24 06:13:19;;;;;;;16.48;3.45;;;8.90;99.90;;;8.91;100.00;100436.72;4975951;28;20205;-77
2022/09/24 06:15:48;;;;;;;13.88;2.92;;;;;;;8.97;100.00;100417.47;4983712;28;20228;-78
2022/09/24 06:18:16;;;;;;;13.65;3.00;;;;;;;9.05;100.00;100412.28;4990017;28;20232;-78
2022/09/24 06:20:45;;;;;;;13.68;2.90;;;9.10;99.90;;;9.14;100.00;100418.63;4965306;28;20206;-78
2022/09/24 06:23:13;;;;;;;12.18;2.70;;;9.40;99.90;;;9.24;100.00;100420.53;4978123;28;20212;-78
2022/09/24 06:25:41;;;;;;;11.38;2.40;;;9.40;99.90;;;9.32;100.00;100427.66;4976671;28;20221;-77
2022/09/24 06:28:09;;;;;;;16.42;3.50;;;;;;;9.40;100.00;100442.75;4986543;28;20248;-78
2022/09/24 06:30:38;;;;;;;12.32;2.67;;;9.50;99.90;;;9.52;100.00;100445.56;4983792;28;20217;-77
2022/09/24 06:33:11;;;;;;;15.15;3.28;;;9.50;99.90;;;9.55;100.00;100450.88;4981516;28;20210;-79
2022/09/24 06:35:41;;;;;;;13.38;2.95;;;9.50;99.90;;;9.58;100.00;100452.66;4985086;28;20232;-79
2022/09/24 06:38:15;;;;;;;15.32;3.33;;;9.60;99.90;;;9.63;100.00;100451.84;4987679;28;20609;-78
2022/09/24 06:40:45;;;;;;;14.43;3.15;;;9.70;99.90;;;9.69;100.00;100455.44;4984148;28;20209;-78
2022/09/24 06:43:14;;;;;;;14.57;3.22;;;9.80;99.90;;;9.77;100.00;100452.03;4992334;28;20657;-79
2022/09/24 06:45:42;;;;;;;12.27;2.72;;;9.90;99.90;;;9.87;100.00;100451.28;4984813;28;20239;-78
2022/09/24 06:48:13;;;;;;;12.57;2.80;;;9.90;99.90;;;9.90;100.00;100450.44;4990707;28;20221;-78
2022/09/24 06:50:44;;;;;;;12.90;2.85;;;9.90;99.90;;;9.99;100.00;100454.94;4988928;28;20206;-78
2022/09/24 06:53:12;;;;;;;16.92;3.63;;;9.90;99.90;;;10.06;100.00;100451.50;4983083;28;20213;-80
2022/09/24 06:55:41;;;;;;;9.30;2.15;;;10.10;99.90;;;10.16;100.00;100451.59;4973982;28;20229;-79
2022/09/24 06:58:22;;;;;;;16.50;3.55;;;10.30;99.90;;;10.36;100.00;100462.44;4981022;28;20209;-79
2022/09/24 07:01:01;;;;;;;14.45;3.20;;;10.40;99.90;;;10.50;100.00;100466.13;4986768;28;20204;-78
2022/09/24 07:03:32;;;;;;;10.27;2.38;;;10.60;99.90;;;10.70;100.00;100484.81;4981482;28;20212;-79
2022/09/24 07:06:03;;;;;;;12.05;2.70;;;10.80;99.90;;;10.80;100.00;100484.03;4973274;28;20229;-78
2022/09/24 07:08:31;;;;;;;16.10;3.45;;;10.70;99.90;;;10.72;100.00;100467.22;4978940;28;20233;-78
2022/09/24 07:11:00;;;;;;;14.30;3.08;;;10.70;99.90;;;10.79;100.00;100470.78;4978154;28;20201;-77
2022/09/24 07:13:28;;;;;;;10.77;2.47;;;10.80;99.90;;;10.93;100.00;100469.16;4987262;28;20200;-78
2022/09/24 07:15:56;;;;;;;15.10;3.33;;;10.80;99.90;;;11.04;100.00;100470.13;4976613;28;20244;-78
2022/09/24 07:18:24;;;;;;;14.52;3.28;;;11.20;99.90;;;11.20;100.00;100481.72;4978228;28;20556;-78
2022/09/24 07:20:55;;;;;;;11.50;2.47;;;11.20;99.90;;;11.30;100.00;100469.41;4972582;28;20216;-78
2022/09/24 07:23:23;;;;;;;19.13;4.15;;;11.40;99.90;;;11.45;100.00;100481.00;4956090;28;20213;-78
2022/09/24 07:25:56;;;;;;;15.18;3.25;;;11.50;99.90;;;11.41;100.00;100454.47;4982413;28;20224;-77
2022/09/24 07:28:24;;;;;;;13.05;2.95;;;11.50;99.90;;;11.62;100.00;100451.94;4987059;28;20252;-78
2022/09/24 07:30:57;;;;;;;15.38;3.30;;;11.70;99.90;;;11.71;100.00;100449.38;4980303;28;20209;-77
2022/09/24 07:33:25;;;;;;;15.85;3.35;;;11.90;99.90;;;11.68;100.00;100428.13;4985369;28;20204;-78
2022/09/24 07:35:53;;;;;;;13.90;3.03;;;11.90;99.90;;;11.58;100.00;100417.50;4985329;28;20228;-78
2022/09/24 07:38:21;;;;;;;13.77;2.97;;;11.80;99.90;;;11.63;100.00;100411.34;4987752;28;20216;-78
2022/09/24 07:40:49;;;;;;;17.05;3.60;;;11.80;99.90;;;11.73;100.00;100422.91;4984095;28;20201;-78
2022/09/24 07:43:17;;;;;;;14.50;3.13;;;11.90;99.90;;;11.74;100.00;100422.00;4981565;28;20216;-78
2022/09/24 07:45:45;;;;;;;16.48;3.47;;;11.90;99.90;;;11.74;100.00;100403.47;4973402;28;20224;-78
2022/09/24 07:48:14;;;;;;;14.70;3.15;;;12.00;99.90;;;11.75;100.00;100395.53;4988945;28;20232;-78
2022/09/24 07:50:42;;;;;;;16.00;3.33;;;12.00;99.90;;;11.85;100.00;100393.81;4980638;28;20555;-79
2022/09/24 07:53:11;;;;;;;13.88;3.03;;;12.00;99.90;;;12.02;100.00;100399.19;4985447;28;20197;-79
2022/09/24 07:55:40;;;;;;;15.82;3.38;;;12.10;99.90;;;12.12;100.00;100388.59;4973708;28;20229;-78
2022/09/24 07:58:15;;;;;;;12.93;2.75;;;12.30;99.90;;;12.28;100.00;100405.41;4983604;28;20557;-78
2022/09/24 08:00:43;;;;;;;12.15;2.63;;;12.40;99.90;;;12.42;100.00;100413.38;4983625;28;20212;-78
2022/09/24 08:03:11;;;;;;;17.10;3.47;;;12.60;99.90;;;12.36;100.00;100397.47;4986933;28;20208;-78
2022/09/24 08:05:46;;;;;;;12.18;2.58;;;12.40;99.90;;;12.53;100.00;100402.78;4987796;28;20235;-79
2022/09/24 08:08:14;;;;;;;14.73;3.15;;;12.50;99.90;;;12.70;100.00;100401.03;4988248;28;20220;-78
2022/09/24 08:10:43;;;;;;;18.85;3.92;;;;;;;12.60;100.00;100373.59;4981486;28;20219;-77
2022/09/24 08:13:11;;;;;;;15.73;3.25;;;12.60;99.90;;;12.73;100.00;100378.03;4977266;28;20200;-78
2022/09/24 08:15:39;;;;;;;13.18;2.72;;;;;;;12.82;100.00;100374.47;4978003;28;20599;-78
2022/09/24 08:18:08;;;;;;;12.13;2.47;;;12.90;99.90;;;12.97;100.00;100379.75;4979857;28;20627;-78
2022/09/24 08:20:37;;;;;;;14.32;3.00;;;13.10;99.90;;;13.10;100.00;100389.50;4984107;28;20209;-81
2022/09/24 08:23:11;;;;;;;14.55;3.08;;;13.20;99.90;;;13.03;100.00;100374.47;4979554;28;20212;-78
2022/09/24 08:25:39;;;;;;;13.25;2.80;;;13.20;99.90;;;13.18;100.00;100393.94;4982186;28;20599;-79
2022/09/24 08:28:10;;;;;;;14.85;3.05;;;13.30;99.90;;;13.14;100.00;100371.78;4982549;28;20211;-77
2022/09/24 08:30:39;;;;;;;14.27;2.97;;;;;;;13.16;100.00;100371.78;4980561;28;20693;-77
2022/09/24 08:33:08;;;;;;;16.02;3.22;;;13.40;99.90;;;13.31;100.00;100388.59;4980235;28;20205;-78
2022/09/24 08:35:38;;;;;;;17.40;3.53;;;;;;;13.31;100.00;100396.56;4978748;28;20239;-78
2022/09/24 08:38:08;;;;;;;13.55;2.85;;;13.60;99.90;;;13.25;100.00;100398.34;4987431;28;20211;-79
2022/09/24 08:40:49;;;;;;;13.88;2.88;;;13.50;99.90;;;13.21;100.00;100401.91;4980653;28;20209;-78
2022/09/24 08:43:38;;;;;;;14.40;2.92;;;13.40;99.90;;;13.14;100.00;100398.34;4977930;28;20236;-79
2022/09/24 08:49:16;;;;;;;13.52;2.88;;;13.40;99.90;;;13.24;100.00;100413.41;4985984;28;20224;-78
2022/09/24 08:52:30;;;;;;;12.77;2.63;;;13.40;99.90;;;13.26;100.00;100403.66;4996016;28;20211;-79
2022/09/24 08:55:06;;;;;;;16.20;3.42;;;13.50;99.90;;;13.33;100.00;100405.41;4978539;28;20232;-80
2022/09/24 08:58:04;;;;;;;13.15;2.75;;;13.50;99.90;;;13.39;100.00;100399.19;4990150;28;20233;-79
2022/09/24 09:00:52;;;;;;;13.45;2.83;;;13.70;99.90;;;13.31;100.00;100388.59;4980151;28;20227;-79
2022/09/24 09:03:38;;;;;;;12.52;2.72;;;13.70;99.90;;;13.50;100.00;100392.09;4972429;28;20232;-79
2022/09/24 09:06:31;;;;;;;12.02;2.58;;;13.80;99.90;;;13.64;100.00;100400.00;4983059;28;20229;-80
2022/09/24 09:09:21;;;;;;;12.50;2.65;;;13.90;99.90;;;13.72;100.00;100385.78;4992229;28;20233;-80
2022/09/24 09:11:58;;;;;;;14.23;2.97;;;14.00;99.90;;;13.93;100.00;100394.53;4984082;28;20209;-81
2022/09/24 09:14:53;;;;;;;12.20;2.60;;;14.10;99.90;;;14.32;100.00;100407.63;4969555;28;20224;-80
2022/09/24 09:17:50;;;;;;;9.93;2.20;;;14.50;99.90;;;14.14;100.00;100369.59;4976129;28;20206;-80
2022/09/24 09:20:29;;;;;;;10.38;2.28;;;14.50;99.90;;;14.37;100.00;100381.00;4991201;28;20215;-81
2022/09/24 09:23:04;;;;;;;14.63;3.13;;;14.60;99.90;;;14.32;100.00;100356.22;4978163;28;20216;-80
2022/09/24 09:25:35;;;;;;;12.32;2.63;;;14.80;99.90;;;14.23;100.00;100351.81;4986374;28;20685;-81
2022/09/24 09:28:14;;;;;;;13.57;3.05;;;14.70;99.90;;;14.35;100.00;100358.84;4975406;28;20216;-80
2022/09/24 09:31:03;;;;;;;12.43;2.60;;;14.90;99.90;;;14.31;100.00;100343.81;4972463;28;20669;-80
2022/09/24 09:33:49;;;;;;;13.23;2.78;;;15.00;99.90;;;14.33;100.00;100342.91;4988519;28;20224;-80
2022/09/24 09:36:52;;;;;;;12.60;2.70;;;15.00;99.90;;;14.52;100.00;100367.63;4990557;28;20208;-80
2022/09/24 09:39:58;;;;;;;16.77;3.50;;;15.00;99.90;;;14.61;100.00;100364.00;4990062;28;20217;-80
2022/09/24 09:42:34;;;;;;;17.90;3.83;;;15.30;99.90;;;14.89;100.00;100399.25;4983412;28;20220;-80
2022/09/24 09:45:33;;;;;;;22.60;4.75;;;15.60;99.90;;;14.88;100.00;100389.47;4981414;28;20225;-80
2022/09/24 09:48:02;;;;;;;14.52;3.00;;;15.50;99.90;;;14.88;100.00;100385.03;4962229;28;20204;-79
2022/09/24 09:50:45;;;;;;;17.10;3.50;;;15.60;99.90;;;14.80;100.00;100362.06;4981499;28;20705;-82
2022/09/24 09:53:30;;;;;;;16.83;3.50;;;15.50;99.90;;;15.09;100.00;100377.75;4986433;28;20201;-80
2022/09/24 09:56:05;;;;;;;12.63;2.67;;;15.70;99.90;;;14.95;100.00;100369.88;4982456;28;20224;-79
2022/09/24 09:58:36;;;;;;;14.70;3.08;;;15.60;99.90;;;14.97;100.00;100366.31;4973443;28;20213;-79
2022/09/24 10:01:11;;;;;;;13.20;2.85;;;15.70;99.90;;;14.98;100.00;100349.44;4983219;28;20212;-79
2022/09/24 10:03:45;;;;;;;12.90;2.70;;;15.70;99.90;;;15.22;100.00;100360.72;4987204;28;20227;-79
2022/09/24 10:06:27;;;;;;;15.90;3.25;;;16.00;99.90;;;15.08;100.00;100328.03;4983294;28;20240;-79
2022/09/24 10:09:16;;;;;;;12.35;2.67;;;16.00;99.90;;;15.42;100.00;100366.72;4990921;28;20212;-79
2022/09/24 10:11:45;;;;;;;14.60;3.00;;;15.90;99.90;;;15.14;100.00;100322.63;4981957;28;20205;-79
2022/09/24 10:14:24;;;;;;;14.75;3.08;;;15.80;99.90;;;15.43;100.00;100341.81;4977434;28;20229;-79
2022/09/24 10:16:56;;;;;;;12.80;2.72;;;16.10;99.90;;;15.37;100.00;100310.81;4993784;28;20208;-79
2022/09/24 10:19:46;;;;;;;14.95;3.15;;;16.30;99.90;;;15.21;100.00;100271.06;4987983;28;20216;-79
2022/09/24 10:22:33;;;;;;;13.48;2.85;;;16.50;99.90;;;15.50;100.00;100295.53;4982467;28;20267;-79
2022/09/24 10:25:04;;;;;;;15.07;3.17;;;16.20;99.90;;;15.43;100.00;100282.31;4986625;28;20220;-79
2022/09/24 10:27:35;;;;;;;11.52;2.58;;;16.10;99.90;;;15.68;100.00;100302.47;4974953;28;20208;-79
2022/09/24 10:30:33;;;;;;;11.07;2.40;;;16.10;99.90;;;15.89;100.00;100285.28;4993463;28;20228;-79
2022/09/24 10:33:03;;;;;;;11.48;2.58;;;16.60;99.90;;;15.65;100.00;100270.53;4987586;28;20210;-79
2022/09/24 10:35:37;;;;;;;15.70;3.38;;;16.30;99.90;;;16.14;100.00;100333.81;5007171;28;20228;-79
2022/09/24 10:38:21;;;;;;;13.25;2.97;;;16.60;99.90;;;16.47;100.00;100324.38;4984697;28;20209;-81
2022/09/24 10:40:50;;;;;;;12.27;2.80;;;17.20;99.90;;;16.43;100.00;100282.63;4986152;28;20223;-83
2022/09/24 10:43:21;;;;;;;12.75;2.92;;;17.50;99.90;;;16.62;100.00;100300.97;5000816;28;20230;-79
2022/09/24 10:46:08;;;;;;;14.65;3.30;;;17.90;99.90;;;16.77;100.00;100267.78;4988354;28;20228;-79
2022/09/24 10:48:53;;;;;;;14.80;3.22;;;18.10;99.90;;;16.46;100.00;100226.53;4992001;28;20208;-79